This is the latest recevied weather packets stored in our database for station/object OK1HOL-13. If no packets are shown the sender has not sent any weather packets the latest 10 day(s).
| Time | Temp. | Humidity | Pressure | Rain* | Wind** | Luminosity | Snow |
|---|---|---|---|---|---|---|---|
| 1777643486 | 23.89° C | 23% | 1026.5 hPa | - | - | 408 W/m² | - |
| 1777642886 | 25° C | 22% | 1026.6 hPa | - | - | 416 W/m² | - |
| 1777642286 | 23.33° C | 23% | 1026.7 hPa | - | - | 430 W/m² | - |
| 1777641686 | 22.78° C | 24% | 1026.7 hPa | - | - | 431 W/m² | - |
| 1777641086 | 24.44° C | 22% | 1026.8 hPa | - | - | 431 W/m² | - |
| 1777640486 | 24.44° C | 23% | 1027 hPa | - | - | 431 W/m² | - |
| 1777639886 | 23.33° C | 23% | 1027.2 hPa | - | - | 431 W/m² | - |
| 1777639286 | 23.89° C | 22% | 1027.4 hPa | - | - | 431 W/m² | - |
| 1777638686 | 22.78° C | 24% | 1027.5 hPa | - | - | 431 W/m² | - |
| 1777637486 | 22.22° C | 24% | 1027.7 hPa | - | - | 431 W/m² | - |
| 1777636886 | 22.22° C | 23% | 1027.8 hPa | - | - | 431 W/m² | - |
| 1777636286 | 22.78° C | 23% | 1027.9 hPa | - | - | 431 W/m² | - |
| 1777635686 | 22.22° C | 24% | 1028 hPa | - | - | 431 W/m² | - |
| 1777635086 | 21.67° C | 24% | 1028 hPa | - | - | 431 W/m² | - |
| 1777634486 | 21.67° C | 24% | 1028.1 hPa | - | - | 431 W/m² | - |
| 1777633886 | 21.67° C | 23% | 1028.3 hPa | - | - | 431 W/m² | - |
| 1777633286 | 21.11° C | 24% | 1028.4 hPa | - | - | 431 W/m² | - |
| 1777632686 | 22.78° C | 23% | 1028.6 hPa | - | - | 431 W/m² | - |
| 1777632086 | 21.11° C | 26% | 1028.7 hPa | - | - | 431 W/m² | - |
| 1777631486 | 21.11° C | 26% | 1028.7 hPa | - | - | 431 W/m² | - |
| 1777630886 | 20.56° C | 27% | 1028.8 hPa | - | - | 431 W/m² | - |
| 1777630286 | 21.11° C | 27% | 1029 hPa | - | - | 431 W/m² | - |
| 1777629686 | 20° C | 29% | 1029 hPa | - | - | 431 W/m² | - |
| 1777629086 | 20° C | 28% | 1029.1 hPa | - | - | 431 W/m² | - |
| 1777628486 | 20.56° C | 27% | 1029.2 hPa | - | - | 431 W/m² | - |
* Rain since midnight (hover to see other rain measurements)
** Current wind speed in m/s (hover to see current wind gust speed)